createdAt,value
2022-10-13T00:01:14.742Z,16.13
2022-10-13T00:03:46.481Z,35.90
2022-10-13T00:06:23.860Z,50.38
2022-10-13T00:08:52.549Z,68.68
2022-10-13T00:11:22.275Z,91.78
2022-10-13T00:13:51.379Z,98.72
2022-10-13T00:16:21.158Z,34.90
2022-10-13T00:18:50.054Z,28.85
2022-10-13T00:21:20.896Z,23.42
2022-10-13T00:23:51.169Z,22.02
2022-10-13T00:26:22.571Z,20.40
2022-10-13T00:28:52.867Z,19.17
2022-10-13T00:31:28.597Z,16.80
2022-10-13T00:33:58.168Z,18.30
2022-10-13T00:36:29.059Z,24.30
2022-10-13T00:38:57.440Z,25.35
2022-10-13T00:41:25.938Z,36.83
2022-10-13T00:44:00.347Z,58.53
2022-10-13T00:46:35.997Z,114.90
2022-10-13T00:49:09.382Z,30.83
2022-10-13T00:51:45.435Z,24.15
2022-10-13T00:54:16.058Z,22.00
2022-10-13T00:56:45.436Z,20.38
2022-10-13T00:59:17.848Z,18.63
2022-10-13T01:01:46.201Z,17.63
2022-10-13T01:04:14.723Z,17.25
2022-10-13T01:06:43.264Z,20.50
2022-10-13T01:09:14.821Z,19.85
2022-10-13T01:11:53.083Z,20.23
2022-10-13T01:14:43.058Z,20.10
2022-10-13T01:17:28.851Z,21.80
2022-10-13T01:20:09.279Z,24.42
2022-10-13T01:22:40.554Z,22.20
2022-10-13T01:25:20.588Z,20.92
2022-10-13T01:27:57.982Z,23.13
2022-10-13T01:30:40.795Z,23.73
2022-10-13T01:33:26.904Z,24.38
2022-10-13T01:36:24.153Z,29.25
2022-10-13T01:38:57.450Z,40.92
2022-10-13T01:41:36.574Z,40.28
2022-10-13T01:44:16.629Z,30.50
2022-10-13T01:46:55.075Z,30.40
2022-10-13T01:49:35.150Z,32.10
2022-10-13T01:52:08.364Z,26.70
2022-10-13T01:54:39.016Z,27.35
2022-10-13T01:57:27.255Z,23.38
2022-10-13T01:59:55.757Z,23.35
2022-10-13T02:02:47.699Z,22.52
2022-10-13T02:05:19.342Z,20.98
2022-10-13T02:07:53.994Z,19.83
2022-10-13T02:10:48.106Z,19.00
2022-10-13T02:13:23.686Z,18.65
2022-10-13T02:15:54.928Z,17.63
2022-10-13T02:18:26.745Z,18.13
2022-10-13T02:20:55.741Z,19.10
2022-10-13T02:23:24.418Z,21.63
2022-10-13T02:25:52.885Z,26.33
2022-10-13T02:28:21.868Z,34.28
2022-10-13T02:30:50.290Z,27.35
2022-10-13T02:33:19.506Z,23.55
2022-10-13T02:35:47.991Z,21.80
2022-10-13T02:38:16.469Z,19.98
2022-10-13T02:40:45.568Z,19.02
2022-10-13T02:43:14.047Z,19.25
2022-10-13T02:45:43.972Z,19.60
2022-10-13T02:48:12.445Z,22.33
2022-10-13T02:50:40.812Z,19.70
2022-10-13T02:53:09.232Z,18.45
2022-10-13T02:55:37.822Z,19.88
2022-10-13T02:58:06.246Z,19.85
2022-10-13T03:00:34.686Z,19.75
2022-10-13T03:03:03.422Z,20.15
2022-10-13T03:05:31.847Z,19.90
2022-10-13T03:08:00.305Z,19.48
2022-10-13T03:10:29.888Z,18.83
2022-10-13T03:12:59.083Z,19.40
2022-10-13T03:15:27.632Z,19.65
2022-10-13T03:17:59.571Z,18.70
2022-10-13T03:20:28.018Z,18.92
2022-10-13T03:22:56.866Z,18.58
2022-10-13T03:25:25.269Z,18.95
2022-10-13T03:28:04.259Z,18.42
2022-10-13T03:30:32.782Z,18.63
2022-10-13T03:33:01.181Z,22.60
2022-10-13T03:35:29.623Z,20.77
2022-10-13T03:37:57.989Z,18.27
2022-10-13T03:40:28.754Z,17.73
2022-10-13T03:43:01.883Z,19.93
2022-10-13T03:45:35.290Z,21.00
2022-10-13T03:48:08.745Z,28.10
2022-10-13T03:50:38.437Z,20.83
2022-10-13T03:53:12.952Z,19.92
2022-10-13T03:55:41.894Z,51.38
2022-10-13T03:58:16.692Z,23.02
2022-10-13T04:00:52.597Z,19.20
2022-10-13T04:03:25.933Z,18.63
2022-10-13T04:05:54.275Z,20.40
2022-10-13T04:08:23.456Z,20.52
2022-10-13T04:10:58.744Z,20.27
2022-10-13T04:13:35.396Z,20.50
2022-10-13T04:16:08.188Z,19.83
2022-10-13T04:18:38.166Z,26.77
2022-10-13T04:21:10.749Z,20.55
2022-10-13T04:23:39.210Z,22.20
2022-10-13T04:26:07.603Z,18.23
2022-10-13T04:28:46.607Z,25.27
2022-10-13T04:31:15.654Z,27.83
2022-10-13T04:33:44.855Z,21.70
2022-10-13T04:36:14.574Z,15.25
2022-10-13T04:38:43.772Z,11.40
2022-10-13T04:41:12.565Z,10.02
2022-10-13T04:43:53.125Z,10.45
2022-10-13T04:46:23.448Z,9.90
2022-10-13T04:48:52.951Z,8.18
2022-10-13T04:51:24.717Z,7.82
2022-10-13T04:54:06.014Z,8.33
2022-10-13T04:56:35.649Z,8.93
2022-10-13T04:59:06.723Z,7.93
2022-10-13T05:01:38.252Z,8.07
2022-10-13T05:04:10.352Z,8.50
2022-10-13T05:06:58.814Z,7.88
2022-10-13T05:09:28.549Z,6.72
2022-10-13T05:11:57.713Z,7.05
2022-10-13T05:14:26.260Z,6.10
2022-10-13T05:16:54.706Z,5.32
2022-10-13T05:19:24.110Z,6.32
2022-10-13T05:21:54.349Z,5.78
2022-10-13T05:24:36.810Z,5.70
2022-10-13T05:27:11.487Z,5.50
2022-10-13T05:32:15.575Z,5.03
2022-10-13T05:34:44.160Z,5.55
2022-10-13T05:37:18.828Z,5.32
2022-10-13T05:39:56.825Z,5.55
2022-10-13T05:42:25.319Z,5.07
2022-10-13T05:44:59.602Z,7.07
2022-10-13T05:47:28.737Z,13.68
2022-10-13T05:49:57.524Z,14.20
2022-10-13T05:52:32.825Z,7.28
2022-10-13T05:55:06.607Z,4.57
2022-10-13T05:57:38.842Z,4.15
2022-10-13T06:00:11.919Z,5.20
2022-10-13T06:05:49.383Z,6.70
2022-10-13T06:08:18.368Z,4.90
2022-10-13T06:10:47.431Z,4.47
2022-10-13T06:13:21.638Z,4.93
2022-10-13T06:15:50.098Z,4.88
2022-10-13T06:18:18.473Z,4.95
2022-10-13T06:20:46.996Z,4.63
2022-10-13T06:23:16.929Z,5.32
2022-10-13T06:25:51.305Z,6.18
2022-10-13T06:28:20.559Z,17.88
2022-10-13T06:30:54.174Z,10.20
2022-10-13T06:33:24.567Z,7.53
2022-10-13T06:36:04.648Z,4.90
2022-10-13T06:38:33.533Z,5.35
2022-10-13T06:41:14.553Z,4.30
2022-10-13T06:43:53.217Z,6.22
2022-10-13T06:46:22.781Z,9.60
2022-10-13T06:48:51.620Z,7.00
2022-10-13T06:51:21.610Z,9.13
2022-10-13T06:53:50.925Z,4.20
2022-10-13T06:56:25.111Z,4.80
2022-10-13T06:58:53.669Z,8.25
2022-10-13T07:01:32.125Z,5.93
2022-10-13T07:04:01.417Z,5.28
2022-10-13T07:06:30.027Z,5.38
2022-10-13T07:08:59.725Z,5.15
2022-10-13T07:11:28.334Z,5.10
2022-10-13T07:13:58.093Z,4.82
2022-10-13T07:16:35.620Z,4.43
2022-10-13T07:19:04.232Z,4.00
2022-10-13T07:21:32.653Z,3.42
2022-10-13T07:24:03.977Z,3.63
2022-10-13T07:26:34.278Z,3.10
2022-10-13T07:29:03.627Z,3.75
2022-10-13T07:31:32.308Z,3.38
2022-10-13T07:34:01.059Z,3.28
2022-10-13T07:36:30.028Z,3.50
2022-10-13T07:39:01.655Z,3.20
2022-10-13T07:41:30.388Z,2.88
2022-10-13T07:43:59.016Z,3.15
2022-10-13T07:46:29.869Z,2.72
2022-10-13T07:48:58.531Z,3.13
2022-10-13T07:51:26.971Z,2.80
2022-10-13T07:53:55.339Z,2.88
2022-10-13T07:56:23.761Z,3.00
2022-10-13T07:58:52.177Z,2.80
2022-10-13T08:01:26.021Z,2.65
2022-10-13T08:03:56.092Z,2.85
2022-10-13T08:06:24.630Z,4.53
2022-10-13T08:08:55.424Z,4.43
2022-10-13T08:11:24.309Z,3.70
2022-10-13T08:13:53.265Z,3.00
2022-10-13T08:16:24.624Z,5.72
2022-10-13T08:18:53.452Z,12.02
2022-10-13T08:21:57.677Z,3.58
2022-10-13T08:24:15.172Z,2.85
2022-10-13T08:26:44.275Z,2.78
2022-10-13T08:29:23.106Z,2.67
2022-10-13T08:32:03.690Z,4.78
2022-10-13T08:34:32.305Z,6.30
2022-10-13T08:37:15.236Z,4.22
2022-10-13T08:39:49.372Z,3.80
2022-10-13T08:42:27.582Z,2.97
2022-10-13T08:47:53.576Z,2.78
2022-10-13T08:50:27.596Z,3.38
2022-10-13T08:52:58.780Z,2.70
2022-10-13T08:55:30.922Z,2.53
2022-10-13T08:58:02.873Z,2.47
2022-10-13T09:00:31.486Z,2.38
2022-10-13T09:03:22.330Z,2.47
2022-10-13T09:06:13.953Z,3.43
2022-10-13T09:08:44.631Z,2.80
2022-10-13T09:11:13.452Z,2.70
2022-10-13T09:13:43.065Z,3.13
2022-10-13T09:16:11.454Z,2.70
2022-10-13T09:18:40.974Z,3.10
2022-10-13T09:21:20.994Z,3.17
2022-10-13T09:23:50.386Z,3.03
2022-10-13T09:26:20.649Z,3.83
2022-10-13T09:28:49.469Z,2.90
2022-10-13T09:31:25.348Z,3.20
2022-10-13T09:34:01.415Z,2.90
2022-10-13T09:36:31.713Z,2.85
2022-10-13T09:39:10.305Z,2.95
2022-10-13T09:41:44.289Z,3.10
2022-10-13T09:44:30.396Z,3.33
2022-10-13T09:46:59.921Z,3.00
2022-10-13T09:49:35.155Z,3.00
2022-10-13T09:52:18.607Z,2.72
2022-10-13T09:54:59.010Z,3.17
2022-10-13T09:57:30.520Z,2.60
2022-10-13T09:59:58.949Z,2.60
2022-10-13T10:02:38.906Z,3.00
2022-10-13T10:05:14.891Z,2.50
2022-10-13T10:07:50.550Z,2.30
2022-10-13T10:10:33.673Z,2.75
2022-10-13T10:13:12.952Z,2.15
2022-10-13T10:15:56.989Z,2.15
2022-10-13T10:18:37.249Z,2.05
2022-10-13T10:21:30.139Z,2.40
2022-10-13T10:24:03.231Z,2.45
2022-10-13T10:26:46.805Z,2.17
2022-10-13T10:29:20.357Z,2.00
2022-10-13T10:31:49.231Z,2.22
2022-10-13T10:34:29.266Z,1.90
2022-10-13T10:37:00.845Z,2.22
2022-10-13T10:39:48.803Z,2.17
2022-10-13T10:42:21.427Z,2.35
2022-10-13T10:44:53.210Z,2.20
2022-10-13T10:47:27.974Z,2.40
2022-10-13T10:50:04.916Z,2.85
2022-10-13T10:52:48.862Z,2.50
2022-10-13T10:55:45.243Z,4.22
2022-10-13T11:01:45.711Z,3.35
2022-10-13T11:04:20.713Z,3.75
2022-10-13T11:06:49.377Z,5.45
2022-10-13T11:09:37.761Z,4.43
2022-10-13T11:12:19.564Z,4.60
2022-10-13T11:15:10.645Z,17.15
2022-10-13T11:17:42.089Z,6.97
2022-10-13T11:23:19.720Z,7.63
2022-10-13T11:25:49.159Z,32.33
2022-10-13T11:28:23.328Z,15.32
2022-10-13T11:34:02.383Z,4.00
2022-10-13T11:36:50.791Z,4.15
2022-10-13T11:39:28.597Z,4.97
2022-10-13T11:42:03.064Z,3.28
2022-10-13T11:44:35.662Z,3.40
2022-10-13T11:56:32.158Z,3.00
2022-10-13T11:59:26.284Z,3.50
2022-10-13T12:01:55.409Z,3.95
2022-10-13T12:04:24.614Z,5.40
2022-10-13T12:07:02.132Z,4.90
2022-10-13T12:09:31.984Z,4.50
2022-10-13T12:12:17.040Z,5.40
2022-10-13T12:14:54.182Z,7.88
2022-10-13T12:17:25.067Z,7.28
2022-10-13T12:19:54.859Z,8.00
2022-10-13T12:22:36.843Z,7.60
2022-10-13T12:25:08.633Z,6.60
2022-10-13T12:27:48.911Z,6.57
2022-10-13T12:30:25.149Z,6.53
2022-10-13T12:32:56.810Z,6.93
2022-10-13T12:35:26.929Z,7.50
2022-10-13T12:38:05.740Z,9.93
2022-10-13T12:40:36.812Z,10.97
2022-10-13T12:43:06.018Z,8.52
2022-10-13T12:45:35.171Z,6.63
2022-10-13T12:48:03.932Z,7.28
2022-10-13T12:50:33.897Z,11.82
2022-10-13T12:56:32.156Z,10.95
2022-10-13T12:59:00.802Z,8.50
2022-10-13T13:01:37.078Z,7.70
2022-10-13T13:04:17.870Z,7.80
2022-10-13T13:06:56.872Z,8.00
2022-10-13T13:09:34.733Z,7.88
2022-10-13T13:12:04.690Z,6.90
2022-10-13T13:14:39.988Z,7.15
2022-10-13T13:17:45.463Z,6.38
2022-10-13T13:20:28.589Z,6.28
2022-10-13T13:22:57.396Z,5.40
2022-10-13T13:25:26.030Z,5.75
2022-10-13T13:27:54.492Z,6.15
2022-10-13T13:30:23.668Z,6.68
2022-10-13T13:32:52.167Z,6.68
2022-10-13T13:35:20.680Z,6.25
2022-10-13T13:37:53.465Z,7.88
2022-10-13T13:40:25.897Z,8.68
2022-10-13T13:42:54.909Z,8.60
2022-10-13T13:45:25.877Z,6.57
2022-10-13T13:48:04.704Z,8.02
2022-10-13T13:50:34.935Z,6.30
2022-10-13T13:53:03.755Z,6.43
2022-10-13T13:55:32.450Z,6.22
2022-10-13T13:58:02.234Z,5.88
2022-10-13T14:00:36.377Z,5.90
2022-10-13T14:03:04.842Z,5.95
2022-10-13T14:05:33.429Z,5.50
2022-10-13T14:08:02.695Z,5.30
2022-10-13T14:10:32.183Z,6.20
2022-10-13T14:13:01.064Z,6.32
2022-10-13T14:15:30.094Z,6.43
2022-10-13T14:17:58.960Z,5.50
2022-10-13T14:20:27.466Z,5.65
2022-10-13T14:22:57.030Z,4.82
2022-10-13T14:25:38.571Z,5.03
2022-10-13T14:28:07.251Z,5.00
2022-10-13T14:30:35.726Z,5.15
2022-10-13T14:33:06.688Z,5.80
2022-10-13T14:35:46.316Z,4.97
2022-10-13T14:38:17.695Z,4.90
2022-10-13T14:40:58.502Z,5.38
2022-10-13T14:43:37.523Z,5.10
2022-10-13T14:46:07.513Z,5.80
2022-10-13T14:48:37.142Z,5.22
2022-10-13T14:51:14.805Z,5.90
2022-10-13T14:53:44.486Z,5.72
2022-10-13T14:56:24.787Z,5.97
2022-10-13T14:58:59.986Z,5.32
2022-10-13T15:01:41.773Z,6.10
2022-10-13T15:04:10.469Z,5.40
2022-10-13T15:06:45.130Z,5.32
2022-10-13T15:09:13.732Z,6.07
2022-10-13T15:11:46.614Z,5.68
2022-10-13T15:14:24.678Z,6.15
2022-10-13T15:16:53.048Z,6.38
2022-10-13T15:19:21.490Z,6.13
2022-10-13T15:21:51.373Z,6.07
2022-10-13T15:24:20.011Z,5.93
2022-10-13T15:26:54.170Z,6.88
2022-10-13T15:29:28.188Z,7.25
2022-10-13T15:32:07.579Z,6.82
2022-10-13T15:34:37.303Z,6.38
2022-10-13T15:37:06.101Z,6.85
2022-10-13T15:39:35.319Z,6.40
2022-10-13T15:42:04.525Z,6.40
2022-10-13T15:44:40.711Z,5.90
2022-10-13T15:47:21.388Z,5.90
2022-10-13T15:49:50.577Z,5.70
2022-10-13T15:52:19.385Z,5.50
2022-10-13T15:54:51.732Z,4.90
2022-10-13T15:57:20.294Z,5.30
2022-10-13T15:59:58.697Z,4.60
2022-10-13T16:02:27.216Z,4.95
2022-10-13T16:05:06.277Z,5.10
2022-10-13T16:07:41.034Z,5.32
2022-10-13T16:10:10.326Z,4.50
2022-10-13T16:12:39.117Z,5.57
2022-10-13T16:15:07.986Z,5.82
2022-10-13T16:17:36.902Z,5.57
2022-10-13T16:20:06.132Z,5.20
2022-10-13T16:22:35.010Z,5.15
2022-10-13T16:25:10.093Z,5.22
2022-10-13T16:27:44.041Z,5.15
2022-10-13T16:30:13.404Z,5.07
2022-10-13T16:32:52.412Z,4.72
2022-10-13T16:35:27.693Z,4.80
2022-10-13T16:37:56.141Z,4.38
2022-10-13T16:40:32.949Z,5.93
2022-10-13T16:43:11.810Z,6.05
2022-10-13T16:45:59.989Z,4.75
2022-10-13T16:48:39.291Z,4.00
2022-10-13T16:51:20.422Z,4.73
2022-10-13T16:53:53.370Z,4.32
2022-10-13T16:56:22.969Z,4.57
2022-10-13T16:58:53.411Z,3.78
2022-10-13T17:01:22.231Z,4.07
2022-10-13T17:04:01.090Z,4.00
2022-10-13T17:06:29.812Z,3.72
2022-10-13T17:08:59.353Z,3.63
2022-10-13T17:11:30.355Z,3.55
2022-10-13T17:14:04.302Z,3.55
2022-10-13T17:16:34.321Z,3.35
2022-10-13T17:19:03.543Z,3.50
2022-10-13T17:21:34.780Z,3.33
2022-10-13T17:24:03.131Z,3.30
2022-10-13T17:26:32.875Z,3.30
2022-10-13T17:29:01.356Z,3.65
2022-10-13T17:31:30.478Z,3.58
2022-10-13T17:33:59.884Z,3.30
2022-10-13T17:36:29.325Z,4.50
2022-10-13T17:39:02.113Z,4.80
2022-10-13T17:41:36.115Z,4.49
2022-10-13T17:44:04.630Z,8.55
2022-10-13T17:46:40.310Z,7.78
2022-10-13T17:49:10.589Z,7.80
2022-10-13T17:51:41.814Z,8.10
2022-10-13T17:54:20.980Z,6.40
2022-10-13T17:56:49.819Z,7.10
2022-10-13T17:59:28.249Z,5.43
2022-10-13T18:01:57.069Z,4.30
2022-10-13T18:04:25.575Z,3.78
2022-10-13T18:06:53.958Z,3.95
2022-10-13T18:09:24.730Z,3.40
2022-10-13T18:11:53.993Z,2.90
2022-10-13T18:14:27.973Z,3.60
2022-10-13T18:16:56.822Z,2.90
2022-10-13T18:19:30.248Z,3.00
2022-10-13T18:21:58.867Z,2.65
2022-10-13T18:24:36.993Z,3.10
2022-10-13T18:27:05.389Z,3.10
2022-10-13T18:29:36.774Z,2.83
2022-10-13T18:32:05.294Z,3.22
2022-10-13T18:34:33.699Z,3.42
2022-10-13T18:37:02.051Z,3.00
2022-10-13T18:39:30.513Z,3.20
2022-10-13T18:41:58.902Z,2.90
2022-10-13T18:44:35.742Z,2.97
2022-10-13T18:47:07.244Z,2.70
2022-10-13T18:49:35.967Z,2.60
2022-10-13T18:52:14.467Z,2.60
2022-10-13T18:54:42.874Z,2.65
2022-10-13T18:57:16.890Z,2.90
2022-10-13T18:59:47.920Z,2.92
2022-10-13T19:02:28.558Z,2.45
2022-10-13T19:04:57.073Z,2.85
2022-10-13T19:07:25.422Z,2.42
2022-10-13T19:09:55.226Z,2.25
2022-10-13T19:12:23.602Z,2.33
2022-10-13T19:15:02.073Z,2.35
2022-10-13T19:17:42.393Z,2.33
2022-10-13T19:20:21.362Z,2.13
2022-10-13T19:22:51.655Z,2.49
2022-10-13T19:25:25.906Z,2.70
2022-10-13T19:27:54.483Z,2.20
2022-10-13T19:30:22.934Z,2.60
2022-10-13T19:32:57.003Z,2.60
2022-10-13T19:35:42.248Z,2.47
2022-10-13T19:38:10.787Z,2.55
2022-10-13T19:40:43.227Z,2.20
2022-10-13T19:43:17.807Z,2.25
2022-10-13T19:45:47.178Z,2.42
2022-10-13T19:48:26.387Z,2.25
2022-10-13T19:50:54.829Z,2.30
2022-10-13T19:53:23.787Z,1.90
2022-10-13T19:55:52.153Z,2.03
2022-10-13T19:58:33.348Z,2.22
2022-10-13T20:01:08.715Z,2.35
2022-10-13T20:03:37.162Z,2.22
2022-10-13T20:06:06.373Z,2.38
2022-10-13T20:08:45.566Z,2.17
2022-10-13T20:11:22.211Z,2.40
2022-10-13T20:14:02.071Z,1.95
2022-10-13T20:16:30.675Z,2.20
2022-10-13T20:18:59.972Z,2.40
2022-10-13T20:21:28.852Z,2.22
2022-10-13T20:23:57.678Z,2.53
2022-10-13T20:26:26.409Z,2.33
2022-10-13T20:28:54.914Z,2.20
2022-10-13T20:31:23.322Z,2.50
2022-10-13T20:33:55.300Z,2.50
2022-10-13T20:36:25.137Z,2.67
2022-10-13T20:38:53.581Z,2.50
2022-10-13T20:41:29.376Z,2.78
2022-10-13T20:43:58.690Z,2.63
2022-10-13T20:46:27.243Z,2.42
2022-10-13T20:49:13.078Z,2.63
2022-10-13T20:51:43.018Z,2.50
2022-10-13T20:54:12.883Z,2.40
2022-10-13T20:56:41.272Z,2.20
2022-10-13T20:59:11.610Z,2.28
2022-10-13T21:01:40.104Z,2.60
2022-10-13T21:04:09.009Z,2.38
2022-10-13T21:06:37.490Z,2.40
2022-10-13T21:09:07.576Z,2.35
2022-10-13T21:11:36.134Z,2.58
2022-10-13T21:14:07.176Z,2.30
2022-10-13T21:16:35.742Z,2.75
2022-10-13T21:19:07.214Z,2.70
2022-10-13T21:21:36.279Z,2.53
2022-10-13T21:24:06.621Z,2.97
2022-10-13T21:26:35.306Z,2.35
2022-10-13T21:29:03.799Z,2.47
2022-10-13T21:31:32.576Z,2.45
2022-10-13T21:34:01.283Z,2.58
2022-10-13T21:36:31.255Z,2.50
2022-10-13T21:39:01.064Z,2.47
2022-10-13T21:41:30.018Z,2.63
2022-10-13T21:44:08.459Z,2.70
2022-10-13T21:46:36.913Z,2.60
2022-10-13T21:49:06.174Z,2.80
2022-10-13T21:51:37.350Z,2.67
2022-10-13T21:54:09.922Z,2.70
2022-10-13T21:56:38.625Z,2.70
2022-10-13T21:59:07.335Z,2.65
2022-10-13T22:01:36.003Z,2.58
2022-10-13T22:04:14.024Z,3.09
2022-10-13T22:06:42.742Z,2.88
2022-10-13T22:09:11.531Z,3.42
2022-10-13T22:11:40.370Z,2.83
2022-10-13T22:14:12.506Z,2.78
2022-10-13T22:16:42.022Z,2.72
2022-10-13T22:19:11.097Z,3.00
2022-10-13T22:21:41.514Z,2.72
2022-10-13T22:24:11.929Z,2.95
2022-10-13T22:26:45.617Z,3.10
2022-10-13T22:29:15.465Z,3.22
2022-10-13T22:31:44.459Z,3.33
2022-10-13T22:34:20.434Z,3.13
2022-10-13T22:36:48.742Z,3.10
2022-10-13T22:39:17.034Z,3.00
2022-10-13T22:41:50.435Z,3.47
2022-10-13T22:44:19.009Z,3.20
2022-10-13T22:46:47.332Z,2.92
2022-10-13T22:49:21.009Z,2.78
2022-10-13T22:51:49.492Z,2.95
2022-10-13T22:54:22.794Z,2.60
2022-10-13T22:57:01.566Z,2.83
2022-10-13T22:59:30.104Z,2.60
2022-10-13T23:01:58.371Z,2.80
2022-10-13T23:04:29.349Z,2.88
2022-10-13T23:06:57.922Z,2.67
2022-10-13T23:09:26.299Z,2.65
2022-10-13T23:11:59.585Z,2.65
2022-10-13T23:14:29.512Z,2.70
2022-10-13T23:16:57.898Z,2.72
2022-10-13T23:19:26.401Z,2.92
2022-10-13T23:21:54.753Z,3.22
2022-10-13T23:24:23.290Z,3.10
2022-10-13T23:26:51.925Z,3.10
2022-10-13T23:29:20.235Z,3.63
2022-10-13T23:31:48.701Z,3.85
2022-10-13T23:34:17.088Z,3.60
2022-10-13T23:36:45.491Z,3.63
2022-10-13T23:39:14.779Z,3.88
2022-10-13T23:41:43.155Z,3.20
2022-10-13T23:44:11.513Z,2.92
2022-10-13T23:46:39.952Z,3.47
2022-10-13T23:49:14.163Z,3.33
2022-10-13T23:51:45.627Z,3.20
2022-10-13T23:54:13.976Z,3.47
2022-10-13T23:56:42.761Z,2.70
2022-10-13T23:59:11.283Z,3.13
